Terminal Aerodrome Forecast
Issued by NWS Bismarck, ND

Home | Current Version | Previous Version | Graphics & Text | Print | Product List | Glossary On
Versions: 1 2 3 4 5 6 7 8 9 10 11 12 13 14
000
FTUS43 KBIS 301125
TAFBIS
TAF
KBIS 301125Z 3012/0112 17008KT P6SM SKC
     FM301700 27012G20KT P6SM SCT120
     FM302000 31015G22KT P6SM VCSH BKN050
     FM010300 VRB05KT P6SM BKN250=

USA.gov is the U.S. government's official web portal to all federal, state and local government web resources and services.